Holton, Michigan
Current Conditions -  °F | °C
As of 7:51 AM on Monday 20 Oct 2014 (Local Time) from KFFX Reporting Station
Clear Clear  
Wind Chill:   Ceiling: Unl
Heat Index:   Visibility: 10mi
Dew Point:   Wind: 3mph
Humidity: 99%   Direction: 230°SW
Pressure: 29.77"   Gusts: NA
Location:  43.41°N, 86.08°W
Report Text: KFFX 201151Z AUTO 23003KT 10SM CLR 08/07 A2977 RMK AO2 T00760074
Loading
Personal Weather Stations






























Interactive Weather Map
Tropical Storm Tracking
New forecast layout! Learn more

10-Day Weather Forecast

Advertisements
Track Severe Weather on mobile